createdAt,value
2022-08-30T00:01:28.841Z,5.30
2022-08-30T00:06:32.038Z,3.00
2022-08-30T00:11:35.165Z,5.40
2022-08-30T00:16:38.355Z,3.60
2022-08-30T00:21:41.621Z,4.00
2022-08-30T00:26:44.902Z,5.40
2022-08-30T00:31:48.478Z,3.50
2022-08-30T00:36:51.704Z,4.20
2022-08-30T00:41:55.083Z,5.20
2022-08-30T00:46:59.007Z,4.40
2022-08-30T00:52:05.062Z,6.00
2022-08-30T00:57:11.837Z,4.40
2022-08-30T01:02:16.480Z,5.00
2022-08-30T01:07:19.779Z,3.90
2022-08-30T01:12:23.822Z,3.50
2022-08-30T01:17:27.536Z,2.70
2022-08-30T01:22:50.232Z,7.20
2022-08-30T01:28:01.946Z,4.50
2022-08-30T01:33:11.959Z,5.20
2022-08-30T01:38:17.602Z,4.70
2022-08-30T01:43:21.166Z,3.60
2022-08-30T01:48:25.715Z,4.40
2022-08-30T01:53:34.860Z,4.80
2022-08-30T01:58:39.723Z,4.40
2022-08-30T02:03:45.502Z,5.70
2022-08-30T02:08:49.456Z,3.80
2022-08-30T02:13:53.092Z,6.10
2022-08-30T02:18:57.620Z,7.90
2022-08-30T02:24:01.055Z,3.60
2022-08-30T02:29:06.173Z,5.00
2022-08-30T02:34:09.474Z,5.10
2022-08-30T02:39:14.556Z,3.00
2022-08-30T02:44:17.829Z,3.30
2022-08-30T02:49:33.313Z,4.40
2022-08-30T02:54:37.257Z,3.10
2022-08-30T02:59:44.546Z,4.50
2022-08-30T03:04:52.167Z,2.20
2022-08-30T03:09:55.369Z,2.20
2022-08-30T03:14:58.882Z,3.90
2022-08-30T03:20:02.536Z,2.90
2022-08-30T03:25:09.131Z,3.00
2022-08-30T03:30:13.375Z,1.70
2022-08-30T03:35:17.630Z,4.50
2022-08-30T03:40:23.153Z,1.70
2022-08-30T03:45:27.244Z,3.40
2022-08-30T03:50:31.304Z,2.60
2022-08-30T03:55:34.597Z,2.90
2022-08-30T04:00:38.234Z,2.70
2022-08-30T04:05:41.536Z,4.70
2022-08-30T04:10:45.099Z,2.00
2022-08-30T04:15:48.911Z,3.10
2022-08-30T04:20:54.549Z,2.90
2022-08-30T04:25:58.747Z,2.20
2022-08-30T04:31:11.752Z,3.90
2022-08-30T04:36:15.519Z,1.90
2022-08-30T04:41:21.219Z,3.30
2022-08-30T04:46:24.333Z,2.20
2022-08-30T04:51:28.749Z,3.30
2022-08-30T04:56:32.000Z,3.90
2022-08-30T05:01:44.968Z,3.90
2022-08-30T05:06:49.509Z,4.10
2022-08-30T05:11:52.821Z,3.50
2022-08-30T05:16:55.987Z,2.80
2022-08-30T05:21:59.318Z,3.00
2022-08-30T05:27:03.583Z,2.10
2022-08-30T05:32:08.611Z,2.90
2022-08-30T05:37:11.735Z,2.60
2022-08-30T05:42:16.894Z,3.10
2022-08-30T05:47:21.449Z,2.80
2022-08-30T05:52:24.835Z,4.10
2022-08-30T05:57:28.290Z,3.20
2022-08-30T06:02:31.600Z,1.90
2022-08-30T06:07:35.346Z,3.00
2022-08-30T06:12:38.567Z,5.90
2022-08-30T06:17:41.891Z,3.70
2022-08-30T06:22:45.097Z,3.60
2022-08-30T06:27:48.387Z,3.90
2022-08-30T06:32:51.576Z,1.50
2022-08-30T06:37:56.252Z,1.50
2022-08-30T06:42:59.463Z,1.30
2022-08-30T06:48:03.124Z,2.70
2022-08-30T06:53:06.396Z,2.30
2022-08-30T06:58:10.334Z,2.30
2022-08-30T07:03:13.671Z,2.20
2022-08-30T07:08:18.508Z,3.90
2022-08-30T07:13:24.395Z,2.60
2022-08-30T07:18:47.064Z,2.20
2022-08-30T07:23:53.477Z,1.90
2022-08-30T07:28:57.605Z,3.40
2022-08-30T07:34:01.045Z,2.70
2022-08-30T07:39:06.030Z,2.60
2022-08-30T07:44:09.753Z,2.50
2022-08-30T07:49:13.298Z,1.90
2022-08-30T07:54:16.715Z,2.70
2022-08-30T07:59:20.329Z,1.00
2022-08-30T08:04:24.604Z,2.40
2022-08-30T08:09:27.847Z,1.40
2022-08-30T08:14:31.462Z,1.60
2022-08-30T08:19:34.603Z,2.10
2022-08-30T08:24:38.023Z,1.60
2022-08-30T08:29:41.199Z,2.60
2022-08-30T08:34:44.621Z,2.70
2022-08-30T08:39:47.894Z,1.20
2022-08-30T08:44:55.689Z,2.60
2022-08-30T08:50:03.512Z,2.10
2022-08-30T08:55:12.887Z,2.60
2022-08-30T09:00:16.391Z,2.80
2022-08-30T09:05:26.240Z,2.90
2022-08-30T09:10:49.162Z,3.70
2022-08-30T09:15:56.187Z,2.60
2022-08-30T09:21:07.563Z,2.10
2022-08-30T09:26:10.959Z,2.80
2022-08-30T09:31:27.092Z,4.60
2022-08-30T09:36:40.154Z,2.60
2022-08-30T09:41:46.154Z,2.20
2022-08-30T09:46:57.223Z,3.20
2022-08-30T09:52:09.509Z,2.40
2022-08-30T09:57:37.398Z,2.40
2022-08-30T10:03:05.070Z,3.00
2022-08-30T10:08:39.464Z,2.40
2022-08-30T10:14:13.349Z,2.90
2022-08-30T10:19:46.077Z,3.40
2022-08-30T10:24:57.301Z,2.60
2022-08-30T10:30:12.320Z,3.10
2022-08-30T10:35:29.076Z,1.70
2022-08-30T10:40:57.559Z,1.70
2022-08-30T10:46:06.085Z,3.10
2022-08-30T10:51:15.823Z,1.90
2022-08-30T10:56:25.791Z,2.20
2022-08-30T11:01:57.982Z,2.50
2022-08-30T11:07:29.212Z,2.40
2022-08-30T11:12:50.130Z,2.50
2022-08-30T11:17:59.522Z,2.30
2022-08-30T11:23:32.994Z,4.80
2022-08-30T11:28:36.407Z,1.60
2022-08-30T11:33:52.500Z,3.30
2022-08-30T11:38:55.702Z,1.80
2022-08-30T11:44:28.948Z,2.10
2022-08-30T11:49:58.007Z,1.70
2022-08-30T11:55:25.780Z,2.30
2022-08-30T12:00:51.504Z,1.60
2022-08-30T12:05:58.909Z,2.20
2022-08-30T12:11:26.192Z,2.50
2022-08-30T12:17:02.300Z,2.30
2022-08-30T12:22:07.621Z,2.40
2022-08-30T12:27:27.697Z,2.60
2022-08-30T12:32:44.727Z,2.30
2022-08-30T12:38:00.167Z,1.90
2022-08-30T12:43:07.877Z,2.80
2022-08-30T12:48:15.520Z,2.30
2022-08-30T12:53:46.592Z,2.80
2022-08-30T12:58:53.915Z,4.50
2022-08-30T13:04:03.013Z,4.70
2022-08-30T13:09:06.362Z,3.10
2022-08-30T13:14:30.644Z,3.60
2022-08-30T13:19:39.113Z,2.90
2022-08-30T13:24:43.823Z,3.70
2022-08-30T13:29:47.296Z,4.80
2022-08-30T13:34:50.984Z,3.90
2022-08-30T13:39:54.152Z,4.20
2022-08-30T13:44:58.344Z,2.90
2022-08-30T13:50:01.606Z,5.20
2022-08-30T13:55:05.460Z,3.20
2022-08-30T14:00:14.844Z,4.50
2022-08-30T14:05:47.205Z,3.80
2022-08-30T14:10:47.360Z,3.70
2022-08-30T14:16:26.482Z,4.30
2022-08-30T14:21:15.358Z,5.00
2022-08-30T14:26:22.232Z,4.10
2022-08-30T14:31:25.530Z,6.50
2022-08-30T14:36:29.252Z,5.40
2022-08-30T14:41:33.046Z,5.00
2022-08-30T14:46:36.630Z,4.20
2022-08-30T14:51:41.081Z,7.90
2022-08-30T14:56:45.119Z,4.00
2022-08-30T15:01:48.444Z,5.60
2022-08-30T15:06:51.981Z,5.50
2022-08-30T15:11:58.825Z,4.50
2022-08-30T15:17:05.530Z,4.70
2022-08-30T15:22:09.446Z,5.60
2022-08-30T15:27:12.753Z,5.50
2022-08-30T15:32:15.964Z,5.10
2022-08-30T15:37:23.637Z,6.50
2022-08-30T15:42:28.032Z,3.50
2022-08-30T15:47:32.460Z,4.00
2022-08-30T15:52:35.760Z,4.60
2022-08-30T15:57:39.512Z,4.60
2022-08-30T16:02:44.270Z,4.40
2022-08-30T16:07:47.471Z,5.20
2022-08-30T16:12:52.106Z,4.50
2022-08-30T16:17:55.964Z,5.00
2022-08-30T16:22:59.136Z,4.90
2022-08-30T16:28:02.636Z,5.50
2022-08-30T16:33:06.065Z,7.30
2022-08-30T16:38:10.885Z,4.60
2022-08-30T16:43:15.799Z,4.50
2022-08-30T16:48:19.488Z,5.80
2022-08-30T16:53:24.319Z,5.10
2022-08-30T16:58:28.420Z,4.60
2022-08-30T17:03:31.899Z,5.00
2022-08-30T17:08:35.277Z,5.70
2022-08-30T17:13:38.665Z,5.70
2022-08-30T17:18:42.580Z,5.90
2022-08-30T17:23:46.701Z,4.90
2022-08-30T17:28:53.352Z,5.00
2022-08-30T17:34:02.999Z,4.40
2022-08-30T17:39:11.015Z,6.30
2022-08-30T17:44:14.950Z,4.80
2022-08-30T17:49:18.225Z,4.20
2022-08-30T17:54:21.501Z,8.30
2022-08-30T17:59:31.710Z,3.70
2022-08-30T18:04:36.531Z,4.60
2022-08-30T18:09:41.313Z,4.80
2022-08-30T18:14:44.629Z,5.80
2022-08-30T18:19:48.672Z,4.10
2022-08-30T18:24:52.035Z,4.80
2022-08-30T18:29:55.258Z,8.30
2022-08-30T18:34:58.496Z,4.50
2022-08-30T18:40:02.549Z,4.00
2022-08-30T18:45:11.513Z,4.00
2022-08-30T18:50:18.828Z,5.20
2022-08-30T18:55:23.449Z,4.30
2022-08-30T19:00:26.746Z,4.50
2022-08-30T19:05:30.412Z,6.00
2022-08-30T19:10:35.413Z,4.70
2022-08-30T19:15:39.047Z,4.70
2022-08-30T19:20:44.390Z,6.30
2022-08-30T19:25:47.612Z,7.60
2022-08-30T19:30:56.649Z,5.20
2022-08-30T19:35:59.978Z,9.10
2022-08-30T19:41:04.029Z,6.10
2022-08-30T19:46:08.357Z,4.60
2022-08-30T19:51:13.717Z,4.30
2022-08-30T19:56:17.128Z,5.80
2022-08-30T20:01:33.165Z,6.10
2022-08-30T20:06:38.053Z,4.90
2022-08-30T20:11:45.224Z,4.10
2022-08-30T20:16:53.662Z,6.20
2022-08-30T20:22:05.580Z,5.00
2022-08-30T20:27:12.075Z,3.90
2022-08-30T20:32:15.289Z,6.00
2022-08-30T20:37:23.279Z,5.20
2022-08-30T20:42:27.376Z,5.30
2022-08-30T20:47:30.650Z,5.40
2022-08-30T20:52:34.025Z,5.10
2022-08-30T20:57:41.941Z,7.20
2022-08-30T21:02:47.023Z,7.70
2022-08-30T21:07:52.091Z,5.70
2022-08-30T21:12:55.329Z,5.20
2022-08-30T21:18:00.729Z,4.70
2022-08-30T21:23:04.098Z,7.70
2022-08-30T21:28:08.602Z,4.60
2022-08-30T21:33:11.861Z,6.40
2022-08-30T21:38:16.341Z,5.00
2022-08-30T21:43:19.693Z,5.90
2022-08-30T21:48:22.926Z,8.70
2022-08-30T21:53:26.258Z,7.30
2022-08-30T21:58:29.419Z,5.00
2022-08-30T22:03:32.804Z,5.90
2022-08-30T22:08:36.018Z,5.00
2022-08-30T22:13:43.045Z,4.70
2022-08-30T22:18:49.744Z,4.80
2022-08-30T22:23:53.183Z,5.60
2022-08-30T22:28:56.491Z,4.60
2022-08-30T22:34:00.127Z,7.40
2022-08-30T22:39:06.279Z,4.30
2022-08-30T22:44:09.532Z,8.50
2022-08-30T22:49:13.245Z,7.90
2022-08-30T22:54:16.447Z,6.70
2022-08-30T22:59:19.656Z,5.60
2022-08-30T23:04:22.867Z,7.20
2022-08-30T23:09:29.450Z,6.30
2022-08-30T23:14:32.741Z,5.90
2022-08-30T23:19:36.016Z,5.20
2022-08-30T23:24:57.798Z,6.20
2022-08-30T23:30:20.035Z,5.90
2022-08-30T23:35:41.816Z,4.90
2022-08-30T23:41:03.709Z,6.40
2022-08-30T23:46:25.487Z,5.70
2022-08-30T23:51:47.272Z,6.20
2022-08-30T23:57:10.079Z,6.60
